Time;durP1;ratioP1;P1;durP2;ratioP2;P2;SDS_P1;SDS_P2;PMS_P1;PMS_P2;Temp;Humidity;BMP_temperature;BMP_pressure;BME280_temperature;BME280_humidity;BME280_pressure;Samples;Min_cycle;Max_cycle;Signal;HPM_P1;HPM_P2
2021/06/17 00:00:43;;;;;;;14.38;11.13;;;;;;;;;;6256815;22;20031;-87
2021/06/17 00:03:10;;;;;;;14.65;10.93;;;;;;;;;;6256770;22;20026;-87
2021/06/17 00:05:36;;;;;;;14.82;10.55;;;;;;;;;;6257489;22;20097;-86
2021/06/17 00:08:04;;;;;;;14.70;10.48;;;;;;;;;;6260749;22;20027;-87
2021/06/17 00:10:33;;;;;;;13.98;10.18;;;;;;;;;;6258990;22;20036;-88
2021/06/17 00:13:02;;;;;;;14.90;11.70;;;;;;;;;;6228323;23;20024;-87
2021/06/17 00:15:30;;;;;;;14.90;11.05;;;;;;;;;;6252871;23;20035;-87
2021/06/17 00:17:58;;;;;;;15.13;11.52;;;;;;;;;;6226241;23;20102;-88
2021/06/17 00:20:25;;;;;;;13.88;10.43;;;;;;;;;;6253253;23;20025;-88
2021/06/17 00:22:52;;;;;;;15.25;11.02;;;;;;;;;;6225958;23;20353;-87
2021/06/17 00:25:19;;;;;;;14.13;10.30;;;;;;;;;;6227167;23;20024;-87
2021/06/17 00:27:46;;;;;;;15.10;10.32;;;;;;;;;;6253550;23;20028;-88
2021/06/17 00:30:13;;;;;;;13.60;11.02;;;;;;;;;;6254159;23;20063;-86
2021/06/17 00:32:43;;;;;;;14.07;11.52;;;;;;;;;;6255574;23;20028;-86
2021/06/17 00:35:10;;;;;;;21.02;12.07;;;;;;;;;;6226298;23;20089;-87
2021/06/17 00:37:38;;;;;;;16.27;11.02;;;;;;;;;;6227083;23;20035;-86
2021/06/17 00:40:06;;;;;;;15.95;11.10;;;;;;;;;;6226936;23;20034;-86
2021/06/17 00:42:33;;;;;;;18.23;11.77;;;;;;;;;;6227803;23;20025;-87
2021/06/17 00:45:00;;;;;;;14.88;11.48;;;;;;;;;;6229304;23;20051;-87
2021/06/17 00:47:27;;;;;;;17.30;11.27;;;;;;;;;;6257137;23;20020;-88
2021/06/17 00:49:53;;;;;;;20.95;12.50;;;;;;;;;;6227281;23;20020;-88
2021/06/17 00:52:20;;;;;;;17.25;12.13;;;;;;;;;;6226595;23;20035;-88
2021/06/17 00:54:46;;;;;;;14.65;11.07;;;;;;;;;;6226101;23;20024;-88
2021/06/17 00:57:13;;;;;;;18.25;11.80;;;;;;;;;;6227505;23;20024;-87
2021/06/17 00:59:40;;;;;;;15.93;11.55;;;;;;;;;;6252744;23;20082;-87
2021/06/17 01:02:06;;;;;;;16.27;10.85;;;;;;;;;;6226036;23;20360;-88
2021/06/17 01:04:33;;;;;;;18.45;11.25;;;;;;;;;;6227752;23;20411;-88
2021/06/17 01:07:00;;;;;;;18.75;11.38;;;;;;;;;;6259563;23;20030;-90
2021/06/17 01:09:37;;;;;;;14.32;12.30;;;;;;;;;;6233691;23;20028;-88
2021/06/17 01:12:11;;;;;;;21.58;12.27;;;;;;;;;;6273034;22;20023;-87
2021/06/17 01:18:06;;;;;;;16.30;11.70;;;;;;;;;;6282121;22;20094;-87
2021/06/17 01:20:42;;;;;;;17.52;12.63;;;;;;;;;;6282270;22;20023;-87
2021/06/17 01:23:19;;;;;;;15.00;12.15;;;;;;;;;;6282962;22;20031;-86
2021/06/17 01:26:04;;;;;;;17.65;12.68;;;;;;;;;;6284606;22;20032;-88
2021/06/17 01:28:31;;;;;;;18.35;12.68;;;;;;;;;;6283404;22;20030;-87
2021/06/17 01:30:58;;;;;;;15.13;12.45;;;;;;;;;;6261244;22;20031;-87
2021/06/17 01:33:25;;;;;;;22.83;12.27;;;;;;;;;;6285596;22;20412;-87
2021/06/17 01:35:55;;;;;;;17.08;12.90;;;;;;;;;;6285555;22;20313;-87
2021/06/17 01:38:23;;;;;;;15.70;12.02;;;;;;;;;;6258210;22;20428;-87
2021/06/17 01:40:50;;;;;;;20.35;12.60;;;;;;;;;;6284338;22;20077;-87
2021/06/17 01:43:18;;;;;;;17.02;12.32;;;;;;;;;;6257260;22;20082;-87
2021/06/17 01:45:45;;;;;;;17.10;11.93;;;;;;;;;;6255484;22;20042;-88
2021/06/17 01:51:35;;;;;;;20.17;13.13;;;;;;;;;;6288828;22;20007;-87
2021/06/17 01:54:02;;;;;;;22.27;12.95;;;;;;;;;;6272092;22;20023;-87
2021/06/17 01:56:29;;;;;;;16.90;12.30;;;;;;;;;;6271167;22;20041;-87
2021/06/17 01:59:01;;;;;;;18.70;13.45;;;;;;;;;;6262767;22;20028;-87
2021/06/17 02:01:56;;;;;;;17.67;12.90;;;;;;;;;;6282169;22;20030;-87
2021/06/17 02:04:23;;;;;;;18.95;12.52;;;;;;;;;;6283808;22;20024;-87
2021/06/17 02:06:50;;;;;;;17.38;12.38;;;;;;;;;;6284142;22;20035;-87
2021/06/17 02:09:17;;;;;;;17.25;13.80;;;;;;;;;;6285605;22;20081;-87
2021/06/17 02:11:43;;;;;;;20.23;12.93;;;;;;;;;;6284270;22;20405;-86
2021/06/17 02:14:11;;;;;;;19.67;12.77;;;;;;;;;;6286975;22;20024;-86
2021/06/17 02:16:42;;;;;;;18.38;13.10;;;;;;;;;;6261809;22;20394;-86
2021/06/17 02:19:16;;;;;;;15.65;13.70;;;;;;;;;;6276510;22;20191;-87
2021/06/17 02:21:44;;;;;;;18.15;13.40;;;;;;;;;;6301163;22;20042;-87
2021/06/17 02:24:11;;;;;;;15.57;12.43;;;;;;;;;;6259277;22;20024;-87
2021/06/17 02:26:39;;;;;;;17.30;12.95;;;;;;;;;;6257851;22;20024;-87
2021/06/17 02:29:07;;;;;;;21.35;13.18;;;;;;;;;;6257521;22;20287;-87
2021/06/17 02:31:42;;;;;;;17.05;13.13;;;;;;;;;;6284040;22;20035;-87
2021/06/17 02:34:09;;;;;;;16.63;13.15;;;;;;;;;;6257060;22;20023;-87
2021/06/17 02:36:36;;;;;;;19.73;13.25;;;;;;;;;;6256140;22;20023;-87
2021/06/17 02:39:06;;;;;;;19.15;13.02;;;;;;;;;;6257327;22;20030;-87
2021/06/17 02:41:34;;;;;;;16.38;12.85;;;;;;;;;;6282977;22;20027;-88
2021/06/17 02:44:01;;;;;;;19.30;14.02;;;;;;;;;;6258301;22;20024;-87
2021/06/17 02:46:28;;;;;;;19.42;13.10;;;;;;;;;;6284196;22;20027;-87
2021/06/17 02:48:57;;;;;;;17.55;13.35;;;;;;;;;;6257895;22;20397;-87
2021/06/17 02:51:33;;;;;;;19.85;12.32;;;;;;;;;;6257044;22;20051;-87
2021/06/17 02:54:03;;;;;;;21.38;13.82;;;;;;;;;;6259534;22;20042;-88
2021/06/17 02:56:29;;;;;;;22.25;13.52;;;;;;;;;;6257682;22;20027;-88
2021/06/17 02:58:56;;;;;;;20.20;13.55;;;;;;;;;;6259113;22;20008;-87
2021/06/17 03:01:34;;;;;;;15.88;13.30;;;;;;;;;;6284775;22;20023;-87
2021/06/17 03:04:06;;;;;;;19.15;13.52;;;;;;;;;;6286132;22;20050;-86
2021/06/17 03:06:39;;;;;;;16.77;13.75;;;;;;;;;;6257466;22;20027;-85
2021/06/17 03:09:18;;;;;;;17.90;13.48;;;;;;;;;;6256858;22;20028;-88
2021/06/17 03:11:46;;;;;;;19.70;13.02;;;;;;;;;;6257365;22;20071;-86
2021/06/17 03:14:16;;;;;;;25.33;13.95;;;;;;;;;;6258945;22;20058;-87
2021/06/17 03:16:43;;;;;;;20.13;13.75;;;;;;;;;;6259424;22;20034;-87
2021/06/17 03:19:32;;;;;;;23.13;14.88;;;;;;;;;;6285970;22;20087;-87
2021/06/17 03:22:00;;;;;;;23.13;14.00;;;;;;;;;;6286960;22;20024;-86
2021/06/17 03:24:28;;;;;;;19.17;13.98;;;;;;;;;;6259886;22;20437;-87
2021/06/17 03:26:56;;;;;;;20.58;13.50;;;;;;;;;;6286367;22;20053;-86
2021/06/17 03:29:27;;;;;;;20.85;13.20;;;;;;;;;;6258209;22;20020;-86
2021/06/17 03:31:55;;;;;;;18.38;13.48;;;;;;;;;;6284370;22;20049;-86
2021/06/17 03:34:23;;;;;;;23.38;13.32;;;;;;;;;;6256471;22;20070;-86
2021/06/17 03:36:50;;;;;;;16.60;12.88;;;;;;;;;;6262692;22;20034;-88
2021/06/17 03:39:19;;;;;;;17.33;13.73;;;;;;;;;;6290839;22;20134;-87
2021/06/17 03:41:47;;;;;;;22.80;13.98;;;;;;;;;;6284904;22;20402;-87
2021/06/17 03:44:15;;;;;;;20.05;13.02;;;;;;;;;;6285917;22;20020;-88
2021/06/17 03:46:43;;;;;;;18.33;13.63;;;;;;;;;;6259600;22;20027;-87
2021/06/17 03:49:10;;;;;;;15.88;13.15;;;;;;;;;;6284301;22;20041;-87
2021/06/17 03:52:04;;;;;;;18.58;14.02;;;;;;;;;;6284106;22;20055;-88
2021/06/17 03:54:32;;;;;;;22.45;13.60;;;;;;;;;;6283177;22;20028;-87
2021/06/17 03:57:00;;;;;;;25.63;13.25;;;;;;;;;;6254129;22;20573;-87
2021/06/17 03:59:32;;;;;;;20.38;13.65;;;;;;;;;;6258228;22;20024;-87
2021/06/17 04:02:03;;;;;;;22.35;13.27;;;;;;;;;;6258311;22;20073;-85
2021/06/17 04:04:31;;;;;;;16.08;13.85;;;;;;;;;;6284688;22;20455;-86
2021/06/17 04:06:59;;;;;;;17.45;12.52;;;;;;;;;;6287495;22;20234;-87
2021/06/17 04:09:28;;;;;;;21.98;13.50;;;;;;;;;;6286959;22;20079;-86
2021/06/17 04:12:03;;;;;;;15.80;12.23;;;;;;;;;;6255559;22;20287;-86
2021/06/17 04:14:31;;;;;;;19.17;12.45;;;;;;;;;;6257316;22;20028;-86
2021/06/17 04:16:58;;;;;;;17.80;12.00;;;;;;;;;;6257499;22;20024;-87
2021/06/17 04:19:27;;;;;;;20.75;12.50;;;;;;;;;;6283494;22;20030;-87
2021/06/17 04:21:59;;;;;;;17.40;11.38;;;;;;;;;;6284897;22;20023;-88
2021/06/17 04:24:28;;;;;;;21.02;11.20;;;;;;;;;;6285599;22;20045;-87
2021/06/17 04:26:55;;;;;;;14.75;11.35;;;;;;;;;;6259197;22;20437;-87
2021/06/17 04:29:48;;;;;;;16.02;11.40;;;;;;;;;;6283281;22;20023;-87
2021/06/17 04:32:15;;;;;;;19.17;11.57;;;;;;;;;;6284722;22;20263;-88
2021/06/17 04:34:43;;;;;;;19.58;11.48;;;;;;;;;;6256316;22;20425;-87
2021/06/17 04:37:12;;;;;;;17.25;10.98;;;;;;;;;;6257198;22;20095;-87
2021/06/17 04:39:43;;;;;;;19.45;11.82;;;;;;;;;;6284159;22;20071;-87
2021/06/17 04:42:12;;;;;;;16.83;10.43;;;;;;;;;;6256620;22;20172;-87
2021/06/17 04:44:39;;;;;;;13.75;10.40;;;;;;;;;;6258603;22;20174;-87
2021/06/17 04:47:09;;;;;;;12.75;10.52;;;;;;;;;;6285208;22;20154;-88
2021/06/17 04:49:37;;;;;;;14.13;10.48;;;;;;;;;;6256179;22;20079;-87
2021/06/17 04:52:08;;;;;;;25.98;10.85;;;;;;;;;;6255876;22;20361;-87
2021/06/17 04:54:35;;;;;;;21.73;12.25;;;;;;;;;;6256831;22;20087;-88
2021/06/17 04:57:03;;;;;;;16.45;9.75;;;;;;;;;;6281075;22;20533;-88
2021/06/17 04:59:29;;;;;;;15.40;10.13;;;;;;;;;;6281465;22;20023;-87
2021/06/17 05:01:57;;;;;;;16.65;10.93;;;;;;;;;;6254303;22;20023;-88
2021/06/17 05:04:24;;;;;;;21.23;9.45;;;;;;;;;;6261067;22;20409;-88
2021/06/17 05:07:10;;;;;;;20.42;10.55;;;;;;;;;;6259704;22;20027;-86
2021/06/17 05:12:23;;;;;;;14.02;8.68;;;;;;;;;;6282879;22;20084;-87
2021/06/17 05:14:51;;;;;;;13.13;9.55;;;;;;;;;;6282790;22;20078;-86
2021/06/17 05:17:18;;;;;;;11.48;9.25;;;;;;;;;;6285087;22;20020;-87
2021/06/17 05:19:45;;;;;;;16.55;9.90;;;;;;;;;;6254662;22;20032;-88
2021/06/17 05:22:11;;;;;;;16.45;9.18;;;;;;;;;;6254854;22;20053;-86
2021/06/17 05:24:38;;;;;;;20.23;9.57;;;;;;;;;;6255915;22;20107;-88
2021/06/17 05:27:07;;;;;;;12.45;8.35;;;;;;;;;;6281037;22;20196;-88
2021/06/17 05:29:34;;;;;;;14.70;9.25;;;;;;;;;;6255127;22;20034;-88
2021/06/17 05:32:01;;;;;;;13.85;9.18;;;;;;;;;;6280855;22;20067;-87
2021/06/17 05:34:27;;;;;;;15.75;9.40;;;;;;;;;;6281344;22;20020;-87
2021/06/17 05:36:54;;;;;;;18.45;9.57;;;;;;;;;;6279887;22;20029;-88
2021/06/17 05:39:21;;;;;;;13.75;8.45;;;;;;;;;;6262066;22;20024;-88
2021/06/17 05:41:48;;;;;;;11.48;9.75;;;;;;;;;;6287284;22;20035;-88
2021/06/17 05:44:15;;;;;;;15.52;8.98;;;;;;;;;;6264675;22;20012;-87
2021/06/17 05:46:42;;;;;;;21.08;9.93;;;;;;;;;;6270912;22;20016;-88
2021/06/17 05:49:41;;;;;;;12.90;9.00;;;;;;;;;;6283915;22;20038;-88
2021/06/17 05:52:08;;;;;;;13.13;8.57;;;;;;;;;;6258766;22;20055;-89
2021/06/17 05:54:34;;;;;;;14.02;9.85;;;;;;;;;;6284952;22;20024;-87
2021/06/17 05:57:01;;;;;;;16.60;9.40;;;;;;;;;;6282261;22;20028;-88
2021/06/17 05:59:37;;;;;;;15.68;9.52;;;;;;;;;;6253706;22;20024;-88
2021/06/17 06:02:10;;;;;;;12.93;9.02;;;;;;;;;;6295073;22;20140;-87
2021/06/17 06:04:38;;;;;;;12.95;9.63;;;;;;;;;;6257169;22;20031;-88
2021/06/17 06:07:05;;;;;;;13.40;8.25;;;;;;;;;;6278827;22;20023;-86
2021/06/17 06:09:33;;;;;;;13.02;8.40;;;;;;;;;;6275849;22;20063;-87
2021/06/17 06:12:00;;;;;;;10.73;8.13;;;;;;;;;;6245536;23;20075;-86
2021/06/17 06:14:33;;;;;;;13.65;8.93;;;;;;;;;;6243488;22;20024;-88
2021/06/17 06:17:01;;;;;;;16.13;8.02;;;;;;;;;;6243269;23;20318;-87
2021/06/17 06:19:35;;;;;;;10.43;8.23;;;;;;;;;;6247018;22;20175;-87
2021/06/17 06:22:14;;;;;;;13.57;9.10;;;;;;;;;;6248231;22;20103;-87
2021/06/17 06:24:41;;;;;;;19.13;9.82;;;;;;;;;;6247480;23;20050;-87
2021/06/17 06:27:09;;;;;;;16.70;9.40;;;;;;;;;;6246902;23;20028;-88
2021/06/17 06:29:41;;;;;;;15.27;8.32;;;;;;;;;;6246931;23;20030;-87
2021/06/17 06:32:09;;;;;;;16.92;8.35;;;;;;;;;;6249873;23;20024;-87
2021/06/17 06:34:37;;;;;;;12.77;7.93;;;;;;;;;;6248406;22;20035;-88
2021/06/17 06:37:04;;;;;;;19.05;8.77;;;;;;;;;;6247214;23;20077;-88
2021/06/17 06:39:32;;;;;;;12.82;8.57;;;;;;;;;;6245512;23;20038;-88
2021/06/17 06:42:01;;;;;;;14.38;8.55;;;;;;;;;;6247634;23;20024;-88
2021/06/17 06:44:28;;;;;;;15.98;8.13;;;;;;;;;;6249450;23;20338;-87
2021/06/17 06:46:56;;;;;;;13.07;8.55;;;;;;;;;;6248921;23;20028;-87
2021/06/17 06:49:41;;;;;;;16.80;8.45;;;;;;;;;;6248564;23;20122;-88
2021/06/17 06:52:12;;;;;;;;;;;;;;;;;;6250645;23;20052;-88
2021/06/17 06:54:43;;;;;;;13.90;8.20;;;;;;;;;;6256308;23;20277;-86
2021/06/17 06:57:16;;;;;;;11.05;8.65;;;;;;;;;;6250089;23;20226;-87
2021/06/17 06:59:42;;;;;;;16.25;8.80;;;;;;;;;;6250164;23;20024;-86
2021/06/17 07:02:09;;;;;;;16.35;8.82;;;;;;;;;;6249179;23;20028;-88
2021/06/17 07:04:39;;;;;;;16.52;8.45;;;;;;;;;;6251998;23;20012;-87
2021/06/17 07:07:08;;;;;;;17.60;8.48;;;;;;;;;;6251238;23;20075;-87
2021/06/17 07:09:35;;;;;;;11.52;8.10;;;;;;;;;;6252346;23;20032;-88
2021/06/17 07:12:30;;;;;;;12.57;7.25;;;;;;;;;;6266035;22;20313;-86
2021/06/17 07:14:58;;;;;;;10.15;7.10;;;;;;;;;;6281337;22;20027;-88
2021/06/17 07:17:25;;;;;;;14.00;7.50;;;;;;;;;;6256212;22;20079;-87
2021/06/17 07:19:57;;;;;;;12.35;7.50;;;;;;;;;;6281590;22;20027;-88
2021/06/17 07:22:58;;;;;;;;;;;;;;;;;;;;;
2021/06/17 07:25:26;;;;;;;12.77;7.40;;;;;;;;;;6280982;22;20075;-84
2021/06/17 07:27:53;;;;;;;11.68;7.07;;;;;;;;;;6257358;22;20103;-86
2021/06/17 07:30:21;;;;;;;11.65;7.57;;;;;;;;;;6260298;22;20019;-87
2021/06/17 07:32:48;;;;;;;12.05;6.95;;;;;;;;;;6258597;22;20038;-87
2021/06/17 07:35:16;;;;;;;14.18;6.97;;;;;;;;;;6284531;22;20174;-87
2021/06/17 07:37:44;;;;;;;11.65;7.32;;;;;;;;;;6257960;22;20024;-86
2021/06/17 07:40:11;;;;;;;11.48;6.68;;;;;;;;;;6284210;22;20378;-86
2021/06/17 07:42:45;;;;;;;11.30;6.82;;;;;;;;;;6254742;22;20019;-86
2021/06/17 07:45:12;;;;;;;15.90;7.00;;;;;;;;;;6281808;22;20027;-87
2021/06/17 07:47:39;;;;;;;12.55;6.65;;;;;;;;;;6286685;22;20024;-86
2021/06/17 07:50:07;;;;;;;13.45;6.82;;;;;;;;;;6253500;22;20123;-87
2021/06/17 07:52:35;;;;;;;12.48;6.00;;;;;;;;;;6254854;22;20218;-86
2021/06/17 07:55:03;;;;;;;12.50;6.35;;;;;;;;;;6280328;22;20028;-86
2021/06/17 07:57:36;;;;;;;9.50;6.05;;;;;;;;;;6256611;22;20030;-85
2021/06/17 08:00:03;;;;;;;11.98;6.32;;;;;;;;;;6256674;22;20140;-87
2021/06/17 08:02:30;;;;;;;8.45;7.15;;;;;;;;;;6279181;22;20078;-86
2021/06/17 08:04:58;;;;;;;9.52;6.72;;;;;;;;;;6278862;22;20453;-86
2021/06/17 08:07:25;;;;;;;11.13;6.60;;;;;;;;;;6249809;22;20378;-85
2021/06/17 08:09:52;;;;;;;11.15;6.60;;;;;;;;;;6280436;22;20028;-85
2021/06/17 08:12:22;;;;;;;15.35;5.97;;;;;;;;;;6275198;22;20058;-87
2021/06/17 08:15:19;;;;;;;8.35;5.90;;;;;;;;;;6257641;22;20012;-87
2021/06/17 08:17:57;;;;;;;16.33;6.97;;;;;;;;;;6264414;22;20024;-87
2021/06/17 08:20:30;;;;;;;11.20;6.43;;;;;;;;;;6287644;22;20108;-86
2021/06/17 08:22:59;;;;;;;9.30;6.38;;;;;;;;;;6253814;22;20407;-86
2021/06/17 08:25:26;;;;;;;12.30;6.35;;;;;;;;;;6253864;22;20346;-85
2021/06/17 08:27:53;;;;;;;10.07;5.47;;;;;;;;;;6281323;22;20034;-86
2021/06/17 08:30:23;;;;;;;13.63;6.22;;;;;;;;;;6284359;22;20021;-87
2021/06/17 08:32:58;;;;;;;12.30;6.22;;;;;;;;;;6256727;22;20180;-86
2021/06/17 08:35:25;;;;;;;10.05;5.75;;;;;;;;;;6257229;22;20054;-87
2021/06/17 08:37:54;;;;;;;9.70;6.15;;;;;;;;;;6284016;22;20133;-86
2021/06/17 08:40:25;;;;;;;8.20;5.47;;;;;;;;;;6284253;22;20076;-86
2021/06/17 08:42:51;;;;;;;11.75;6.10;;;;;;;;;;6283610;22;20071;-86
2021/06/17 08:45:47;;;;;;;10.18;6.20;;;;;;;;;;6254173;22;20023;-87
2021/06/17 08:48:15;;;;;;;13.48;6.13;;;;;;;;;;6282178;22;20034;-86
2021/06/17 08:50:42;;;;;;;8.20;5.50;;;;;;;;;;6281387;22;20051;-85
2021/06/17 08:56:59;;;;;;;10.90;5.70;;;;;;;;;;6284740;22;20003;-85
2021/06/17 08:59:34;;;;;;;10.48;6.05;;;;;;;;;;6282923;22;20051;-87
2021/06/17 09:02:00;;;;;;;9.50;5.13;;;;;;;;;;6256974;22;20077;-85
2021/06/17 09:04:28;;;;;;;11.38;5.88;;;;;;;;;;6258146;22;20054;-85
2021/06/17 09:07:11;;;;;;;13.82;5.68;;;;;;;;;;6283569;22;20158;-86
2021/06/17 09:09:42;;;;;;;8.73;5.28;;;;;;;;;;6289983;22;20031;-87
2021/06/17 09:12:10;;;;;;;13.63;5.95;;;;;;;;;;6294099;22;20015;-87
2021/06/17 09:14:57;;;;;;;11.23;6.30;;;;;;;;;;6282795;22;20027;-86
2021/06/17 09:17:24;;;;;;;10.07;6.38;;;;;;;;;;6281266;22;20080;-86
2021/06/17 09:19:54;;;;;;;7.00;5.53;;;;;;;;;;6256853;22;20413;-86
2021/06/17 09:22:22;;;;;;;12.05;6.03;;;;;;;;;;6280815;22;20024;-85
2021/06/17 09:24:56;;;;;;;13.52;5.45;;;;;;;;;;6253826;22;20011;-87
2021/06/17 09:27:28;;;;;;;10.40;5.85;;;;;;;;;;6276795;22;20026;-84
2021/06/17 09:30:16;;;;;;;8.05;5.97;;;;;;;;;;6251059;22;20034;-83
2021/06/17 09:32:47;;;;;;;10.63;5.47;;;;;;;;;;6277826;22;20035;-86
2021/06/17 09:35:17;;;;;;;8.25;5.47;;;;;;;;;;6278039;22;20261;-86
2021/06/17 09:37:45;;;;;;;12.23;5.85;;;;;;;;;;6253761;22;20019;-86
2021/06/17 09:40:32;;;;;;;8.55;5.22;;;;;;;;;;6253768;22;20349;-86
2021/06/17 09:43:28;;;;;;;9.30;5.20;;;;;;;;;;6253555;22;20024;-87
2021/06/17 09:46:05;;;;;;;13.85;5.53;;;;;;;;;;6279306;22;20090;-86
2021/06/17 09:48:42;;;;;;;10.38;6.28;;;;;;;;;;6280979;22;20059;-86
2021/06/17 09:51:24;;;;;;;8.23;5.57;;;;;;;;;;6282000;22;20035;-85
2021/06/17 09:54:06;;;;;;;7.15;4.88;;;;;;;;;;6284623;22;20415;-85
2021/06/17 09:56:34;;;;;;;6.40;5.40;;;;;;;;;;6256788;22;20389;-86
2021/06/17 09:59:07;;;;;;;9.10;4.95;;;;;;;;;;6254303;22;20027;-86
2021/06/17 10:01:45;;;;;;;7.05;4.72;;;;;;;;;;6280410;22;20023;-87
2021/06/17 10:04:14;;;;;;;11.35;5.53;;;;;;;;;;6283417;22;20028;-86
2021/06/17 10:06:44;;;;;;;6.95;4.85;;;;;;;;;;6253075;22;20085;-87
2021/06/17 10:09:13;;;;;;;9.55;4.75;;;;;;;;;;6255557;22;20522;-87
2021/06/17 10:11:41;;;;;;;7.38;4.70;;;;;;;;;;6221597;23;20147;-86
2021/06/17 10:14:09;;;;;;;6.57;4.05;;;;;;;;;;6253887;22;20035;-86
2021/06/17 10:16:42;;;;;;;7.90;4.25;;;;;;;;;;6245055;23;20028;-86
2021/06/17 10:19:15;;;;;;;6.03;4.35;;;;;;;;;;6245036;22;20023;-86
2021/06/17 10:21:42;;;;;;;5.88;4.03;;;;;;;;;;6247105;22;20016;-86
2021/06/17 10:24:26;;;;;;;5.60;3.80;;;;;;;;;;6248377;22;20024;-86
2021/06/17 10:26:55;;;;;;;5.47;3.80;;;;;;;;;;6247296;23;20047;-85
2021/06/17 10:29:27;;;;;;;13.88;4.40;;;;;;;;;;6244227;22;20298;-87
2021/06/17 10:32:04;;;;;;;8.43;4.47;;;;;;;;;;6244911;23;20028;-86
2021/06/17 10:34:34;;;;;;;8.40;4.07;;;;;;;;;;6248892;22;20024;-86
2021/06/17 10:37:28;;;;;;;7.78;4.45;;;;;;;;;;6245760;23;20103;-87
2021/06/17 10:40:04;;;;;;;7.47;4.43;;;;;;;;;;6249799;22;20031;-86
2021/06/17 10:42:35;;;;;;;7.10;3.90;;;;;;;;;;6249906;23;20334;-88
2021/06/17 10:45:25;;;;;;;7.00;4.68;;;;;;;;;;6244944;22;20075;-88
2021/06/17 10:47:57;;;;;;;6.32;4.10;;;;;;;;;;6248216;23;20024;-87
2021/06/17 10:50:49;;;;;;;9.90;4.20;;;;;;;;;;6248221;23;20039;-86
2021/06/17 10:53:17;;;;;;;6.38;4.60;;;;;;;;;;6250939;22;20269;-86
2021/06/17 10:55:51;;;;;;;9.25;4.18;;;;;;;;;;6249412;23;20028;-87
2021/06/17 11:02:06;;;;;;;5.38;3.97;;;;;;;;;;6244786;23;20207;-85
2021/06/17 11:04:37;;;;;;;7.80;3.67;;;;;;;;;;6247501;23;20050;-87
2021/06/17 11:07:09;;;;;;;8.63;3.63;;;;;;;;;;6244024;22;20340;-87
2021/06/17 11:09:39;;;;;;;5.22;3.53;;;;;;;;;;6246902;23;20028;-86
2021/06/17 11:12:26;;;;;;;7.38;4.13;;;;;;;;;;6269931;22;20038;-87
2021/06/17 11:15:02;;;;;;;7.30;3.83;;;;;;;;;;6279692;22;20035;-87
2021/06/17 11:17:33;;;;;;;7.32;3.70;;;;;;;;;;6260544;22;20242;-86
2021/06/17 11:20:05;;;;;;;9.05;3.95;;;;;;;;;;6259568;22;20085;-87
2021/06/17 11:22:39;;;;;;;5.10;3.45;;;;;;;;;;6255133;22;20237;-86
2021/06/17 11:25:13;;;;;;;7.10;3.60;;;;;;;;;;6278272;22;20020;-86
2021/06/17 11:27:56;;;;;;;9.35;3.58;;;;;;;;;;6283322;22;20050;-88
2021/06/17 11:30:41;;;;;;;10.40;3.50;;;;;;;;;;6256772;22;20413;-87
2021/06/17 11:33:23;;;;;;;5.77;3.37;;;;;;;;;;6250154;22;20191;-86
2021/06/17 11:36:10;;;;;;;10.68;3.55;;;;;;;;;;6258134;22;20024;-87
2021/06/17 11:39:01;;;;;;;7.60;3.83;;;;;;;;;;6257310;22;20081;-87
2021/06/17 11:41:47;;;;;;;7.80;3.25;;;;;;;;;;6259535;22;20236;-87
2021/06/17 11:44:18;;;;;;;9.00;3.05;;;;;;;;;;6282575;22;20034;-88
2021/06/17 11:46:48;;;;;;;10.13;3.70;;;;;;;;;;6254511;22;20101;-87
2021/06/17 11:49:40;;;;;;;10.30;3.53;;;;;;;;;;6259321;22;20473;-86
2021/06/17 11:52:08;;;;;;;15.68;3.40;;;;;;;;;;6279222;22;20023;-87
2021/06/17 11:54:35;;;;;;;6.53;3.85;;;;;;;;;;6255438;22;20158;-86
2021/06/17 11:57:15;;;;;;;8.75;3.50;;;;;;;;;;6278921;22;20028;-87
2021/06/17 11:59:56;;;;;;;9.27;3.58;;;;;;;;;;6258539;22;20050;-86
2021/06/17 12:02:25;;;;;;;6.40;2.92;;;;;;;;;;6256438;22;20046;-87
2021/06/17 12:05:27;;;;;;;8.23;3.47;;;;;;;;;;6282398;22;20024;-87
2021/06/17 12:07:59;;;;;;;5.72;2.72;;;;;;;;;;6286880;22;20024;-88
2021/06/17 12:10:31;;;;;;;6.20;2.90;;;;;;;;;;6283175;22;20024;-86
2021/06/17 12:13:05;;;;;;;6.20;2.92;;;;;;;;;;6281136;22;20024;-88
2021/06/17 12:15:58;;;;;;;5.40;2.85;;;;;;;;;;6258184;22;20386;-86
2021/06/17 12:18:28;;;;;;;4.65;2.80;;;;;;;;;;6251018;22;20027;-87
2021/06/17 12:20:55;;;;;;;5.18;2.50;;;;;;;;;;6279007;22;20031;-87
2021/06/17 12:23:24;;;;;;;9.48;3.17;;;;;;;;;;6255813;22;20027;-87
2021/06/17 12:26:06;;;;;;;10.30;3.15;;;;;;;;;;6285341;22;20019;-87
2021/06/17 12:28:59;;;;;;;7.03;2.75;;;;;;;;;;6258664;22;20028;-87
2021/06/17 12:31:26;;;;;;;4.38;3.05;;;;;;;;;;6246016;22;20024;-87
2021/06/17 12:34:13;;;;;;;8.63;2.70;;;;;;;;;;6286506;22;20105;-88
2021/06/17 12:37:02;;;;;;;4.45;2.33;;;;;;;;;;6259029;22;20028;-86
2021/06/17 12:39:29;;;;;;;6.75;2.67;;;;;;;;;;6271460;22;20034;-88
2021/06/17 12:41:59;;;;;;;6.05;2.80;;;;;;;;;;6273028;22;20007;-88
2021/06/17 12:44:39;;;;;;;7.97;3.22;;;;;;;;;;6261254;22;20027;-88
2021/06/17 12:47:17;;;;;;;5.45;2.50;;;;;;;;;;6285425;22;20030;-87
2021/06/17 12:52:39;;;;;;;3.15;2.35;;;;;;;;;;6285449;22;20089;-87
2021/06/17 12:55:25;;;;;;;6.13;2.85;;;;;;;;;;6258595;22;20254;-86
2021/06/17 12:58:00;;;;;;;4.38;2.50;;;;;;;;;;6233000;22;20060;-87
2021/06/17 13:00:35;;;;;;;7.22;2.90;;;;;;;;;;6260233;22;20185;-88
2021/06/17 13:03:02;;;;;;;4.57;2.70;;;;;;;;;;6286645;22;20034;-88
2021/06/17 13:05:42;;;;;;;6.18;2.90;;;;;;;;;;6260972;22;20341;-87
2021/06/17 13:08:16;;;;;;;11.35;2.63;;;;;;;;;;6285547;22;20018;-87
2021/06/17 13:10:53;;;;;;;6.68;2.70;;;;;;;;;;6260541;22;20062;-87
2021/06/17 13:13:24;;;;;;;5.22;2.38;;;;;;;;;;6258607;22;20027;-87
2021/06/17 13:15:54;;;;;;;4.30;2.72;;;;;;;;;;6260966;22;20042;-87
2021/06/17 13:18:24;;;;;;;4.07;2.70;;;;;;;;;;6289798;22;20016;-87
2021/06/17 13:20:54;;;;;;;5.93;2.85;;;;;;;;;;6298755;22;20015;-87
2021/06/17 13:23:46;;;;;;;3.45;2.55;;;;;;;;;;6299314;22;20028;-88
2021/06/17 13:26:13;;;;;;;5.38;2.67;;;;;;;;;;6270062;22;20022;-88
2021/06/17 13:28:55;;;;;;;7.72;2.97;;;;;;;;;;6272197;22;20034;-87
2021/06/17 13:31:22;;;;;;;5.03;2.30;;;;;;;;;;6268070;22;20276;-87
2021/06/17 13:33:53;;;;;;;8.90;3.42;;;;;;;;;;6287058;22;20023;-87
2021/06/17 13:36:39;;;;;;;8.23;2.80;;;;;;;;;;6256886;22;20421;-87
2021/06/17 13:39:15;;;;;;;9.18;2.83;;;;;;;;;;6254680;22;20042;-87
2021/06/17 13:41:43;;;;;;;3.38;2.65;;;;;;;;;;6278452;22;20065;-87
2021/06/17 13:44:12;;;;;;;7.13;2.90;;;;;;;;;;6254397;22;20388;-87
2021/06/17 13:46:45;;;;;;;7.32;2.90;;;;;;;;;;6258636;22;20026;-88
2021/06/17 13:49:15;;;;;;;6.32;2.88;;;;;;;;;;6256441;22;20127;-87
2021/06/17 13:51:49;;;;;;;5.88;2.95;;;;;;;;;;6255092;22;20020;-88
2021/06/17 13:54:25;;;;;;;9.07;2.75;;;;;;;;;;6257225;22;20019;-87
2021/06/17 13:56:55;;;;;;;5.13;2.70;;;;;;;;;;6251951;22;20028;-87
2021/06/17 13:59:26;;;;;;;5.30;2.78;;;;;;;;;;6255184;22;20032;-87
2021/06/17 14:01:52;;;;;;;9.13;2.50;;;;;;;;;;6254226;22;20020;-87
2021/06/17 14:04:35;;;;;;;5.15;2.85;;;;;;;;;;6261044;22;20024;-88
2021/06/17 14:07:06;;;;;;;6.68;3.08;;;;;;;;;;6292173;22;20167;-88
2021/06/17 14:09:34;;;;;;;8.25;3.22;;;;;;;;;;6261181;22;20028;-88
2021/06/17 14:12:08;;;;;;;4.80;2.78;;;;;;;;;;6247471;23;20410;-88
2021/06/17 14:14:34;;;;;;;7.15;3.30;;;;;;;;;;6259498;23;20032;-88
2021/06/17 14:17:01;;;;;;;12.05;3.15;;;;;;;;;;6266002;23;20009;-87
2021/06/17 14:19:38;;;;;;;6.63;2.67;;;;;;;;;;6262806;23;20294;-86
2021/06/17 14:22:04;;;;;;;3.88;2.70;;;;;;;;;;6249993;23;20020;-87
2021/06/17 14:24:32;;;;;;;6.13;2.70;;;;;;;;;;6247800;23;20019;-87
2021/06/17 14:27:07;;;;;;;5.25;3.00;;;;;;;;;;6248095;23;20031;-87
2021/06/17 14:29:34;;;;;;;6.32;2.95;;;;;;;;;;6249332;23;20299;-88
2021/06/17 14:32:01;;;;;;;7.35;2.72;;;;;;;;;;6248957;23;20028;-88
2021/06/17 14:34:31;;;;;;;6.15;3.20;;;;;;;;;;6251923;23;20241;-88
2021/06/17 14:37:25;;;;;;;6.95;2.92;;;;;;;;;;6254580;23;20067;-88
2021/06/17 14:39:52;;;;;;;9.48;2.83;;;;;;;;;;6253370;22;20024;-87
2021/06/17 14:42:23;;;;;;;5.60;2.70;;;;;;;;;;6251955;23;20024;-87
2021/06/17 14:45:03;;;;;;;6.35;2.92;;;;;;;;;;6255093;22;20328;-88
2021/06/17 14:47:33;;;;;;;9.98;3.20;;;;;;;;;;6249941;23;20082;-88
2021/06/17 14:50:00;;;;;;;5.95;2.80;;;;;;;;;;6252984;22;20028;-86
2021/06/17 14:52:30;;;;;;;6.30;2.72;;;;;;;;;;6251163;22;20032;-88
2021/06/17 14:54:58;;;;;;;6.90;2.80;;;;;;;;;;6249801;23;20285;-87
2021/06/17 14:57:25;;;;;;;4.45;2.67;;;;;;;;;;6250239;22;20025;-88
2021/06/17 14:59:55;;;;;;;14.13;2.63;;;;;;;;;;6248137;23;20237;-87
2021/06/17 15:02:21;;;;;;;4.07;3.00;;;;;;;;;;6260555;22;20119;-88
2021/06/17 15:04:49;;;;;;;6.90;3.13;;;;;;;;;;6266463;22;20054;-86
2021/06/17 15:07:22;;;;;;;3.00;2.47;;;;;;;;;;6266737;22;20019;-87
2021/06/17 15:09:58;;;;;;;5.75;2.90;;;;;;;;;;6268795;22;20028;-90
2021/06/17 15:12:25;;;;;;;6.25;3.30;;;;;;;;;;6272854;22;20012;-88
2021/06/17 15:14:59;;;;;;;6.20;2.80;;;;;;;;;;6272696;22;20059;-87
2021/06/17 15:17:33;;;;;;;9.48;3.45;;;;;;;;;;6271929;22;20076;-87